Latest Weather Observations for Coondewanna

IDW60801

Issued at 8:35 pm WST Thursday 2 October 2014 (issued every 30 minutes, with the page automatically refreshed every 10 minutes)

About weather observations | Map of weather stations | Latest weather observations for WA | Other Formats
Station Details ID: 505051 Name: COONDEWANNA Lat: -22.96 Lon: 118.81 Height: 697.63 m
Data from the previous 72 hours. | See also: Recent months for locations in Western Australia
Date/Time
WST
Temp
°C
App
Temp
°C
Dew
Point
Rel
Hum
%
Delta-T
°C
Wind Press
QNH
hPa
Press
MSL
hPa
Rain
since 9 am
mm
Dir
 
Spd
km/h
Gust
km/h
Spd
kts
Gust
kts
02/08:30pm 27.3 23.1 1.7 19 12.8 SW 13 17 7 9 1017.1 1012.4 0.0
02/08:00pm 28.4 23.5 1.8 18 13.4 WSW 17 20 9 11 1016.7 1012.0 0.0
02/07:30pm 29.2 24.3 1.7 17 13.9 WSW 17 24 9 13 1016.1 1011.4 0.0
02/07:00pm 29.9 25.3 1.4 16 14.4 WSW 15 20 8 11 1015.8 1011.1 0.0
02/06:30pm 31.0 25.1 1.4 15 15.1 W 22 26 12 14 1015.3 1010.5 0.0
02/06:00pm 32.1 25.8 1.3 14 15.7 WSW 24 33 13 18 1014.7 1010.0 0.0
02/05:30pm 34.0 30.0 0.6 12 17.1 W 11 15 6 8 1014.3 1009.6 0.0
02/05:00pm 34.4 30.1 0.9 12 17.3 NNW 13 20 7 11 1014.0 1009.2 0.0
02/04:30pm 34.0 29.6 0.6 12 17.1 NNW 13 22 7 12 1014.0 1009.2 0.0
02/04:00pm 34.3 30.3 0.8 12 17.2 NNW 11 15 6 8 1013.9 1009.1 0.0
02/03:30pm 34.8 29.0 0.0 11 17.7 NW 20 32 11 17 1013.8 1009.0 0.0
02/03:00pm 34.7 30.6 -0.1 11 17.7 NW 11 15 6 8 1013.8 1009.0 0.0
02/02:30pm 35.0 30.2 0.2 11 17.8 WNW 15 20 8 11 1014.2 1009.5 0.0
02/02:17pm 35.8 28.6 0.8 11 18.1 WNW 28 37 15 20 1014.2 1009.5 0.0
02/02:00pm 33.5 29.8 0.2 12 16.9 SW 9 17 5 9 1014.4 1009.7 0.0
02/01:30pm 34.5 28.1 1.0 12 17.3 NNW 24 37 13 20 1014.8 1010.1 0.0
02/01:00pm 33.3 28.9 0.1 12 16.8 ENE 13 24 7 13 1015.2 1010.4 0.0
02/12:30pm 32.6 28.2 0.6 13 16.2 NNW 13 24 7 13 1015.7 1011.0 0.0
02/12:00pm 32.8 29.2 0.8 13 16.3 SSW 9 15 5 8 1016.1 1011.4 0.0
02/11:30am 32.1 28.6 1.3 14 15.8 SE 9 13 5 7 1016.4 1011.7 0.0
02/11:00am 31.1 27.2 1.4 15 15.1 SSW 11 19 6 10 1016.9 1012.2 0.0
02/10:30am 31.7 28.1 2.8 16 15.1 S 11 22 6 12 1016.9 1012.2 0.0
02/10:00am 29.8 25.1 2.9 18 13.9 SW 17 26 9 14 1017.3 1012.6 0.0
02/09:30am 29.1 24.4 3.1 19 13.5 SSW 17 22 9 12 1017.5 1012.8 0.0
02/09:00am 28.0 23.5 4.3 22 12.4 S 17 22 9 12 1017.6 1012.9 -
02/08:30am 26.6 22.2 5.0 25 11.4 SSW 17 20 9 11 1017.7 1013.0 -
02/08:00am 25.3 22.2 5.5 28 10.4 SW 11 17 6 9 1017.7 1013.0 -
02/07:30am 23.4 22.0 5.3 31 9.4 SW 2 7 1 4 1017.7 1013.0 -
02/07:00am 20.9 19.8 4.9 35 8.1 CALM 0 0 0 0 1017.5 1012.8 -
02/06:30am 18.5 16.0 3.9 38 7.2 SW 6 9 3 5 1017.3 1012.6 -
02/06:00am 17.3 15.8 3.2 39 6.7 CALM 0 0 0 0 1017.0 1012.3 -
02/05:30am 17.7 16.3 3.6 39 6.8 CALM 0 2 0 1 1016.9 1012.2 -
02/05:00am 17.1 15.4 3.8 41 6.4 SW 2 6 1 3 1016.7 1012.0 -
02/04:30am 17.7 15.5 3.2 38 7.0 SW 4 6 2 3 1016.3 1011.6 -
02/04:00am 18.5 16.8 3.9 38 7.1 SW 2 7 1 4 1016.2 1011.5 -
02/03:30am 20.1 17.0 3.8 34 8.1 SW 9 11 5 6 1016.1 1011.4 -
02/03:00am 20.6 17.2 4.2 34 8.2 WNW 11 13 6 7 1016.1 1011.4 0.0
02/02:30am 21.2 17.8 3.9 32 8.6 SW 11 15 6 8 1015.9 1011.2 -
02/02:00am 22.0 17.8 3.6 30 9.2 WSW 15 17 8 9 1016.3 1011.6 -
02/01:30am 22.3 18.9 3.9 30 9.3 WNW 11 13 6 7 1016.5 1011.8 -
02/01:00am 23.3 20.5 3.3 27 10.0 WSW 7 9 4 5 1016.5 1011.8 -
02/12:30am 23.3 20.5 3.3 27 10.0 W 7 11 4 6 1016.4 1011.7 -
02/12:00am 24.4 21.2 3.1 25 10.7 W 9 13 5 7 1016.5 1011.8 -
 
Date/Time
WST
Temp
°C
App
Temp
°C
Dew
Point
Rel
Hum
%
Delta-T
°C
Wind Press
QNH
hPa
Press
MSL
hPa
Rain
since 9 am
mm
Dir
 
Spd
km/h
Gust
km/h
Spd
kts
Gust
kts
01/11:30pm 25.2 21.3 3.2 24 11.1 W 13 19 7 10 1016.7 1012.0 -
01/11:00pm 25.6 21.5 2.3 22 11.6 W 13 20 7 11 1016.8 1012.1 -
01/10:30pm 25.5 21.7 1.6 21 11.8 WSW 11 15 6 8 1016.9 1012.2 -
01/10:00pm 25.8 21.4 0.5 19 12.2 W 13 17 7 9 1017.1 1012.4 -
01/09:30pm 24.8 19.9 -0.4 19 11.9 SW 15 19 8 10 1017.0 1012.3 -
01/09:00pm 23.6 20.8 -0.6 20 11.3 NNW 4 6 2 3 1016.3 1011.6 0.0
01/08:30pm 25.2 21.9 -1.6 17 12.4 NNW 6 7 3 4 1016.2 1011.5 -
01/08:00pm 26.1 23.9 -1.7 16 12.9 CALM 0 0 0 0 1016.0 1011.3 -
01/07:30pm 27.3 25.2 -0.7 16 13.4 CALM 0 0 0 0 1015.6 1010.9 -
01/07:00pm 29.0 25.7 -1.2 14 14.5 NNW 6 7 3 4 1015.3 1010.5 -
01/06:30pm 30.9 27.0 -1.8 12 15.8 NNW 9 11 5 6 1014.8 1010.1 -
01/06:00pm 33.0 29.0 -2.6 10 17.2 NE 9 13 5 7 1014.5 1009.8 -
01/05:30pm 34.0 28.0 -1.9 10 17.6 N 20 24 11 13 1014.1 1009.4 -
01/05:00pm 34.7 28.3 -1.4 10 18.0 NNE 22 32 12 17 1013.9 1009.1 -
01/04:30pm 34.9 30.3 -1.2 10 18.0 NNE 13 20 7 11 1014.0 1009.2 -
01/04:00pm 34.7 28.9 -1.4 10 18.0 ENE 19 24 10 13 1014.0 1009.2 -
01/03:30pm 34.6 30.0 -1.4 10 17.9 NNE 13 20 7 11 1014.1 1009.4 -
01/03:00pm 35.4 29.5 -0.8 10 18.3 NNE 20 32 11 17 1014.3 1009.6 -
01/02:35pm 35.0 27.5 -1.1 10 18.1 NNE 28 46 15 25 1014.5 1009.8 -
01/02:30pm 34.6 26.7 -1.4 10 17.9 NE 30 44 16 24 1014.7 1010.0 -
01/02:00pm 34.8 28.1 -1.3 10 18.0 NE 24 37 13 20 1014.8 1010.1 -
01/01:30pm 34.1 27.3 -1.8 10 17.7 NNE 24 43 13 23 1015.4 1010.7 -
01/01:00pm 33.8 28.3 -2.0 10 17.5 NNE 17 30 9 16 1015.9 1011.2 -
01/12:30pm 32.7 25.8 -2.9 10 17.0 ENE 24 37 13 20 1016.4 1011.7 -
01/12:00pm 32.4 26.2 -3.1 10 16.9 ENE 20 32 11 17 1017.2 1012.5 -
01/11:30am 32.2 25.2 -3.2 10 16.8 E 24 37 13 20 1017.5 1012.8 0.0
01/11:00am 31.4 24.0 -3.8 10 16.4 ENE 26 35 14 19 1018.3 1013.6 0.0
01/10:00am 30.5 24.3 -3.3 11 15.8 E 20 28 11 15 1018.9 1014.2 0.0
01/09:30am 29.3 23.1 -3.0 12 15.1 E 20 33 11 18 1019.2 1014.5 0.0
01/09:00am 28.7 22.5 -3.5 12 14.8 E 20 26 11 14 1019.4 1014.8 0.0
01/08:30am 27.7 22.3 -1.3 15 13.8 E 17 22 9 12 1019.5 1014.9 0.0
01/08:00am 25.0 21.6 1.8 22 11.4 SSW 9 15 5 8 1019.8 1015.1 0.0
01/07:30am 23.5 21.7 1.2 23 10.8 CALM 0 0 0 0 1019.8 1016.5 0.0
01/07:00am 20.5 18.7 1.4 28 9.0 CALM 0 0 0 0 1019.4 1016.1 0.0
01/06:30am 18.6 16.8 1.2 31 8.1 CALM 0 0 0 0 1019.0 1015.7 0.0
01/06:00am 18.5 15.5 1.1 31 8.0 E 6 9 3 5 1018.9 1015.6 0.0
01/05:30am 20.3 16.9 1.7 29 8.8 ESE 9 13 5 7 1018.5 1015.2 0.0
01/05:00am 19.2 16.3 1.2 30 8.4 E 6 7 3 4 1018.0 1014.7 0.0
01/04:30am 19.0 15.9 1.5 31 8.2 W 7 9 4 5 1017.8 1014.5 0.0
01/04:00am 18.8 15.7 0.4 29 8.4 W 6 7 3 4 1017.7 1014.4 0.0
01/03:30am 18.8 15.7 0.4 29 8.4 W 6 7 3 4 1017.6 1014.3 0.0
01/03:00am 21.5 17.5 0.7 25 9.8 SSW 11 13 6 7 1017.3 1014.0 0.0
01/02:30am 21.5 16.8 0.7 25 9.8 SSW 15 17 8 9 1017.2 1013.9 0.0
01/02:00am 19.5 16.3 0.5 28 8.8 WNW 7 9 4 5 1017.2 1013.9 0.0
01/01:30am 20.7 16.8 1.1 27 9.2 S 11 13 6 7 1017.1 1013.8 0.0
01/01:00am 20.8 17.7 1.1 27 9.3 E 7 13 4 7 1017.1 1013.8 0.0
01/12:30am 21.2 19.4 1.0 26 9.5 CALM 0 0 0 0 1017.3 1014.0 0.0
01/12:00am 20.8 17.2 0.6 26 9.4 WNW 9 11 5 6 1017.4 1014.1 0.0
 
Date/Time
WST
Temp
°C
App
Temp
°C
Dew
Point
Rel
Hum
%
Delta-T
°C
Wind Press
QNH
hPa
Press
MSL
hPa
Rain
since 9 am
mm
Dir
 
Spd
km/h
Gust
km/h
Spd
kts
Gust
kts
30/11:30pm 22.2 19.2 0.7 24 10.2 ESE 6 9 3 5 1017.5 1014.2 0.0
30/11:00pm 23.1 18.4 0.9 23 10.6 ESE 15 17 8 9 1017.5 1014.2 0.0
30/10:30pm 22.8 20.6 1.2 24 10.4 E 2 9 1 5 1017.4 1014.1 0.0
30/10:00pm 24.4 21.4 0.7 21 11.4 E 6 7 3 4 1017.5 1014.2 0.0
30/09:30pm 24.2 22.3 0.5 21 11.3 CALM 0 0 0 0 1017.6 1014.3 0.0
30/09:00pm 25.4 23.2 0.8 20 11.9 E 2 7 1 4 1017.5 1014.2 0.0
30/08:30pm 25.7 22.7 1.1 20 12.0 E 6 7 3 4 1017.4 1014.1 0.0
30/08:00pm 26.8 22.8 0.5 18 12.8 E 11 13 6 7 1017.1 1013.8 0.0
30/07:30pm 27.5 23.9 0.3 17 13.3 E 9 11 5 6 1016.9 1013.5 0.0
30/07:00pm 28.4 24.7 0.2 16 13.8 ENE 9 9 5 5 1016.4 1013.1 0.0
30/06:30pm 30.2 26.6 0.7 15 14.8 ENE 9 13 5 7 1016.1 1012.8 0.0
30/06:00pm 31.0 27.0 0.4 14 15.3 NE 11 15 6 8 1015.8 1012.5 0.0
30/05:30pm 31.9 26.7 0.1 13 15.9 NE 17 22 9 12 1015.6 1012.2 0.0
30/05:00pm 32.2 27.8 0.3 13 16.0 NE 13 20 7 11 1015.4 1012.0 0.0
30/04:30pm 32.9 27.3 -0.2 12 16.6 NNE 19 32 10 17 1015.2 1011.8 0.0
30/04:00pm 33.0 28.5 -0.2 12 16.7 E 13 20 7 11 1015.2 1011.8 0.0
30/03:30pm 32.3 27.4 -0.7 12 16.3 NNE 15 28 8 15 1015.3 1011.9 0.0
30/03:00pm 33.2 27.4 0.0 12 16.7 ENE 20 24 11 13 1015.0 1011.7 0.0
30/02:30pm 33.3 28.5 0.1 12 16.8 N 15 26 8 14 1015.3 1011.9 0.0
30/02:00pm 32.5 26.3 -0.5 12 16.4 N 22 30 12 16 1015.4 1012.0 0.0
30/01:30pm 33.3 27.5 0.1 12 16.8 NE 20 35 11 19 1015.9 1012.6 0.0
30/01:00pm 32.0 26.2 0.2 13 15.9 N 20 26 11 14 1016.2 1012.9 0.0
30/12:30pm 31.8 26.0 0.0 13 15.9 NE 20 35 11 19 1016.5 1013.2 0.0
30/12:00pm 31.6 26.4 -0.1 13 15.8 ESE 17 22 9 12 1016.9 1013.5 0.0
30/11:30am 31.8 26.0 0.0 13 15.9 E 20 32 11 17 1017.4 1014.1 0.0
30/11:00am 30.7 23.3 -0.8 13 15.4 E 28 39 15 21 1017.7 1014.4 0.0
30/10:30am 30.2 21.8 -1.2 13 15.2 E 33 43 18 23 1017.9 1014.6 0.0
30/10:00am 29.2 20.8 -1.0 14 14.6 E 33 46 18 25 1018.1 1014.8 0.0
30/09:46am 28.8 20.0 -1.3 14 14.4 E 35 46 19 25 1018.3 1015.0 0.0
30/09:30am 28.1 18.2 -0.9 15 13.9 E 41 48 22 26 1018.4 1015.1 0.0
30/09:27am 28.1 19.0 -0.9 15 13.9 E 37 48 20 26 1018.3 1015.0 0.0
30/09:22am 28.2 20.4 -0.9 15 14.0 E 30 48 16 26 1018.4 1015.1 0.0
30/09:00am 26.8 19.2 -2.0 15 13.4 ESE 28 35 15 19 1018.7 1015.4 -
30/08:30am 25.9 18.7 -1.8 16 12.9 E 26 37 14 20 1018.8 1015.5 -
30/08:00am 24.0 16.8 -1.8 18 11.8 E 26 39 14 21 1018.7 1015.4 -
30/07:30am 22.9 17.8 -1.9 19 11.2 ESE 15 24 8 13 1018.7 1015.4 -
30/07:00am 21.7 17.8 -1.6 21 10.5 E 9 17 5 9 1018.5 1015.2 -
30/06:30am 20.2 16.8 -0.4 25 9.4 E 7 11 4 6 1018.1 1014.8 -
30/06:00am 15.5 12.4 0.1 35 6.8 ENE 6 9 3 5 1017.7 1014.4 -
30/05:30am 16.6 13.4 0.7 34 7.2 N 7 11 4 6 1017.6 1014.3 -
30/05:00am 14.8 12.5 0.3 37 6.4 N 2 7 1 4 1017.4 1014.1 -
30/04:30am 15.2 12.4 -0.1 35 6.7 ENE 4 9 2 5 1017.3 1014.0 -
30/04:00am 18.0 14.4 0.6 31 7.9 SSW 9 13 5 7 1017.3 1014.0 -
30/03:30am 17.1 13.5 0.7 33 7.5 E 9 13 5 7 1017.2 1013.9 -
30/03:00am 17.2 13.9 0.4 32 7.6 WNW 7 9 4 5 1017.0 1013.7 0.0
30/02:30am 18.7 15.1 0.8 30 8.3 S 9 11 5 6 1017.0 1013.7 -
30/02:00am 19.5 16.5 0.5 28 8.8 SSW 6 11 3 6 1017.1 1013.8 -
30/01:30am 21.2 17.3 1.0 26 9.5 WSW 11 20 6 11 1017.2 1013.9 -
30/01:00am 20.2 17.2 1.1 28 9.0 W 6 11 3 6 1017.3 1014.0 -
30/12:30am 18.9 15.7 0.5 29 8.5 SW 7 9 4 5 1017.5 1014.2 -
30/12:00am 20.7 18.9 1.1 27 9.2 CALM 0 0 0 0 1017.5 1014.2 -
 
Date/Time
WST
Temp
°C
App
Temp
°C
Dew
Point
Rel
Hum
%
Delta-T
°C
Wind Press
QNH
hPa
Press
MSL
hPa
Rain
since 9 am
mm
Dir
 
Spd
km/h
Gust
km/h
Spd
kts
Gust
kts
29/11:30pm 20.4 17.4 0.8 27 9.2 SW 6 7 3 4 1017.6 1014.3 -
29/11:00pm 21.3 18.3 1.0 26 9.6 SW 6 9 3 5 1017.7 1014.4 -
29/10:30pm 20.7 17.7 1.1 27 9.2 WSW 6 7 3 4 1017.9 1014.6 -
29/10:00pm 21.7 19.2 1.4 26 9.7 WSW 4 7 2 4 1018.0 1014.7 -
29/09:30pm 23.0 20.5 1.4 24 10.4 WSW 4 7 2 4 1017.9 1014.6 -
29/09:00pm 24.3 21.2 1.2 22 11.2 WSW 7 9 4 5 1017.8 1014.5 -

Other Formats:

Comma delimited format used in spreadsheet applications
http://www.bom.gov.au/fwo/IDW60801/IDW60801.99312.axf

JavaScript Object Notation format (JSON) in row-major order
http://www.bom.gov.au/fwo/IDW60801/IDW60801.99312.json